createdAt,value
2023-01-19T00:01:29.165Z,100153.50
2023-01-19T00:03:01.386Z,100154.34
2023-01-19T00:04:33.515Z,100157.78
2023-01-19T00:06:07.172Z,100151.81
2023-01-19T00:07:39.449Z,100143.25
2023-01-19T00:09:11.576Z,100157.84
2023-01-19T00:10:45.707Z,100154.44
2023-01-19T00:12:17.758Z,100150.16
2023-01-19T00:13:53.820Z,100155.34
2023-01-19T00:15:25.828Z,100160.50
2023-01-19T00:16:58.042Z,100157.09
2023-01-19T00:18:33.940Z,100155.38
2023-01-19T00:20:06.731Z,100151.06
2023-01-19T00:21:38.841Z,100158.00
2023-01-19T00:23:11.001Z,100153.69
2023-01-19T00:24:43.089Z,100164.00
2023-01-19T00:26:16.635Z,100163.16
2023-01-19T00:27:51.162Z,100158.91
2023-01-19T00:29:26.706Z,100154.59
2023-01-19T00:30:58.754Z,100159.75
2023-01-19T00:32:30.833Z,100158.91
2023-01-19T00:34:03.913Z,100164.97
2023-01-19T00:35:36.781Z,100157.28
2023-01-19T00:37:12.107Z,100161.53
2023-01-19T00:38:44.114Z,100169.28
2023-01-19T00:40:16.576Z,100157.28
2023-01-19T00:42:07.551Z,100161.59
2023-01-19T00:43:39.600Z,100155.59
2023-01-19T00:45:18.860Z,100164.22
2023-01-19T00:46:51.141Z,100159.06
2023-01-19T00:48:23.267Z,100154.78
2023-01-19T00:49:55.469Z,100171.09
2023-01-19T00:51:27.467Z,100165.06
2023-01-19T00:53:01.637Z,100165.09
2023-01-19T00:54:34.097Z,100172.00
2023-01-19T00:56:06.622Z,100159.09
2023-01-19T00:57:39.807Z,100167.72
2023-01-19T00:59:11.994Z,100168.56
2023-01-19T01:00:45.090Z,100165.13
2023-01-19T01:02:17.472Z,100171.19
2023-01-19T01:03:49.713Z,100166.88
2023-01-19T01:05:28.385Z,100172.03
2023-01-19T01:07:19.953Z,100174.56
2023-01-19T01:08:54.622Z,100176.28
2023-01-19T01:10:32.762Z,100165.16
2023-01-19T01:12:06.038Z,100172.03
2023-01-19T01:13:42.669Z,100175.44
2023-01-19T01:15:16.205Z,100173.72
2023-01-19T01:16:48.557Z,100173.72
2023-01-19T01:18:21.201Z,100176.31
2023-01-19T01:19:53.508Z,100178.03
2023-01-19T01:21:25.731Z,100179.75
2023-01-19T01:23:02.899Z,100180.63
2023-01-19T01:24:38.737Z,100181.50
2023-01-19T01:26:11.026Z,100164.31
2023-01-19T01:27:45.927Z,100183.22
2023-01-19T01:29:18.156Z,100178.91
2023-01-19T01:30:54.740Z,100179.78
2023-01-19T01:32:27.195Z,100171.22
2023-01-19T01:33:59.511Z,100178.09
2023-01-19T01:35:43.884Z,100178.97
2023-01-19T01:37:15.977Z,100168.66
2023-01-19T01:38:48.450Z,100169.50
2023-01-19T01:40:20.758Z,100163.47
2023-01-19T01:41:52.831Z,100164.31
2023-01-19T01:43:49.760Z,100161.75
2023-01-19T01:45:30.023Z,100161.75
2023-01-19T01:47:02.420Z,100167.69
2023-01-19T01:48:34.965Z,100165.13
2023-01-19T01:50:06.868Z,100159.94
2023-01-19T01:51:51.805Z,100158.25
2023-01-19T01:53:23.938Z,100153.94
2023-01-19T01:54:57.020Z,100156.47
2023-01-19T01:56:34.817Z,100157.34
2023-01-19T01:58:08.250Z,100164.22
2023-01-19T01:59:43.235Z,100164.25
2023-01-19T02:01:33.925Z,100156.50
2023-01-19T02:03:06.336Z,100156.47
2023-01-19T02:04:41.215Z,100155.63
2023-01-19T02:06:14.456Z,100150.47
2023-01-19T02:08:26.444Z,100152.19
2023-01-19T02:10:16.696Z,100151.31
2023-01-19T02:12:08.014Z,100147.88
2023-01-19T02:13:44.162Z,100147.84
2023-01-19T02:15:19.092Z,100153.03
2023-01-19T02:16:51.114Z,100154.72
2023-01-19T02:18:25.655Z,100156.47
2023-01-19T02:19:58.342Z,100156.47
2023-01-19T02:21:35.548Z,100155.63
2023-01-19T02:23:11.716Z,100157.38
2023-01-19T02:24:44.050Z,100159.09
2023-01-19T02:26:20.872Z,100168.56
2023-01-19T02:27:53.269Z,100165.16
2023-01-19T02:29:26.486Z,100159.97
2023-01-19T02:30:58.807Z,100159.13
2023-01-19T02:32:30.913Z,100176.34
2023-01-19T02:34:04.168Z,100167.75
2023-01-19T02:35:38.316Z,100171.22
2023-01-19T02:37:22.393Z,100166.06
2023-01-19T02:39:08.035Z,100163.47
2023-01-19T02:40:43.178Z,100162.63
2023-01-19T02:42:47.755Z,100156.63
2023-01-19T02:44:21.434Z,100160.94
2023-01-19T02:46:12.688Z,100158.38
2023-01-19T02:47:55.319Z,100160.94
2023-01-19T02:49:59.999Z,100166.09
2023-01-19T02:51:35.821Z,100169.56
2023-01-19T02:53:13.354Z,100169.56
2023-01-19T02:54:48.332Z,100175.56
2023-01-19T02:56:46.517Z,100174.72
2023-01-19T02:58:32.307Z,100176.47
2023-01-19T03:00:22.595Z,100179.94
2023-01-19T03:02:59.220Z,100179.13
2023-01-19T03:05:03.955Z,100192.84
2023-01-19T03:06:52.868Z,100178.22
2023-01-19T03:08:38.564Z,100182.41
2023-01-19T03:11:01.554Z,100182.34
2023-01-19T03:12:44.574Z,100185.69
2023-01-19T03:14:22.257Z,100181.34
2023-01-19T03:16:00.258Z,100180.41
2023-01-19T03:17:33.043Z,100180.41
2023-01-19T03:19:27.444Z,100176.91
2023-01-19T03:21:01.988Z,100188.03
2023-01-19T03:22:34.801Z,100181.94
2023-01-19T03:24:11.992Z,100180.19
2023-01-19T03:25:48.255Z,100184.50
2023-01-19T03:27:49.817Z,100186.19
2023-01-19T03:32:18.585Z,100177.53
2023-01-19T03:33:53.715Z,100186.97
2023-01-19T03:35:28.271Z,100177.47
2023-01-19T03:37:17.806Z,100184.38
2023-01-19T03:38:50.621Z,100175.78
2023-01-19T03:40:23.256Z,100185.25
2023-01-19T03:41:58.955Z,100188.66
2023-01-19T03:43:35.267Z,100178.25
2023-01-19T03:45:20.864Z,100189.38
2023-01-19T03:46:52.982Z,100193.59
2023-01-19T03:48:25.091Z,100191.78
2023-01-19T03:49:57.402Z,100191.69
2023-01-19T03:51:29.768Z,100189.03
2023-01-19T03:53:13.661Z,100194.09
2023-01-19T03:54:45.637Z,100198.28
2023-01-19T03:56:26.871Z,100203.34
2023-01-19T03:58:28.573Z,100198.97
2023-01-19T19:05:31.640Z,100803.22
2023-01-19T19:06:09.076Z,100797.34
2023-01-19T19:07:06.818Z,100797.84
2023-01-19T19:08:41.484Z,100795.25
2023-01-19T19:10:13.738Z,100794.22
2023-01-19T19:11:45.891Z,100796.81
2023-01-19T19:13:18.045Z,100795.06
2023-01-19T19:14:50.075Z,100796.72
2023-01-19T19:16:26.540Z,100800.13
2023-01-19T19:17:59.735Z,100798.28
2023-01-19T19:19:31.763Z,100804.38
2023-01-19T19:21:11.607Z,100795.72
2023-01-19T19:22:43.603Z,100800.81
2023-01-19T19:24:15.632Z,100804.25
2023-01-19T19:25:47.601Z,100803.41
2023-01-19T19:27:24.066Z,100805.91
2023-01-19T19:28:56.247Z,100813.69
2023-01-19T19:30:28.266Z,100810.19
2023-01-19T19:32:00.291Z,100803.31
2023-01-19T19:33:33.159Z,100813.69
2023-01-19T19:35:08.397Z,100806.69
2023-01-19T19:36:40.544Z,100806.59
2023-01-19T19:38:12.555Z,100808.34
2023-01-19T19:39:44.563Z,100808.31
2023-01-19T19:41:29.941Z,100809.22
2023-01-19T19:43:02.008Z,100815.25
2023-01-19T19:44:36.149Z,100813.47
2023-01-19T19:46:11.845Z,100814.28
2023-01-19T19:47:46.508Z,100813.47
2023-01-19T19:49:21.751Z,100818.66
2023-01-19T19:50:54.266Z,100817.69
2023-01-19T19:52:27.908Z,100822.84
2023-01-19T19:54:00.888Z,100822.78
2023-01-19T19:55:32.694Z,100828.88
2023-01-19T19:57:04.637Z,100828.88
2023-01-19T19:58:38.879Z,100824.53
2023-01-19T20:00:11.580Z,100827.06
2023-01-19T20:01:45.204Z,100829.69
2023-01-19T20:03:17.244Z,100831.34
2023-01-19T20:04:49.134Z,100834.69
2023-01-19T20:06:23.695Z,100835.47
2023-01-19T20:07:55.657Z,100827.69
2023-01-19T20:09:27.683Z,100834.56
2023-01-19T20:11:09.781Z,100826.81
2023-01-19T20:12:41.764Z,100837.13
2023-01-19T20:14:16.371Z,100835.38
2023-01-19T20:15:48.480Z,100837.03
2023-01-19T20:17:21.009Z,100840.34
2023-01-19T20:18:58.361Z,100847.19
2023-01-19T20:20:30.649Z,100845.47
2023-01-19T20:22:02.556Z,100853.94
2023-01-19T20:23:37.192Z,100850.44
2023-01-19T20:25:09.631Z,100858.97
2023-01-19T20:26:44.913Z,100863.25
2023-01-19T20:28:16.830Z,100865.00
2023-01-19T20:29:58.163Z,100870.16
2023-01-19T20:31:32.071Z,100867.56
2023-01-19T20:33:04.221Z,100862.38
2023-01-19T20:34:36.721Z,100866.66
2023-01-19T20:36:19.092Z,100866.66
2023-01-19T20:37:56.548Z,100871.13
2023-01-19T20:39:35.858Z,100867.72
2023-01-19T20:41:09.637Z,100876.38
2023-01-19T20:42:43.508Z,100876.38
2023-01-19T20:44:19.421Z,100878.91
2023-01-19T20:45:52.845Z,100876.22
2023-01-19T20:47:25.547Z,100891.47
2023-01-19T20:48:57.474Z,100887.09
2023-01-19T20:50:29.521Z,100891.25
2023-01-19T20:52:01.890Z,100895.44
2023-01-19T20:53:35.278Z,100902.22
2023-01-19T20:55:09.118Z,100906.41
2023-01-19T20:56:44.231Z,100902.97
2023-01-19T20:58:16.183Z,100913.34
2023-01-19T20:59:48.437Z,100913.19
2023-01-19T21:01:23.051Z,100914.84
2023-01-19T21:02:56.645Z,100926.88
2023-01-19T21:04:28.624Z,100925.13
2023-01-19T21:06:00.591Z,100920.88
2023-01-19T21:07:32.523Z,100924.31
2023-01-19T21:09:25.494Z,100926.88
2023-01-19T21:10:57.877Z,100931.09
2023-01-19T21:12:30.104Z,100926.78
2023-01-19T21:14:02.368Z,100931.06
2023-01-19T21:15:34.642Z,100934.50
2023-01-19T21:17:06.622Z,100938.81
2023-01-19T21:18:38.538Z,100937.94
2023-01-19T21:20:11.152Z,100936.19
2023-01-19T21:21:43.111Z,100939.50
2023-01-19T21:23:15.306Z,100935.22
2023-01-19T21:24:47.390Z,100940.41
2023-01-19T21:26:19.405Z,100944.69
2023-01-19T21:27:51.547Z,100941.25
2023-01-19T21:29:29.905Z,100945.56
2023-01-19T21:31:13.241Z,100942.94
2023-01-19T21:32:45.262Z,100949.84
2023-01-19T21:34:17.356Z,100947.97
2023-01-19T21:35:53.931Z,100954.75
2023-01-19T21:37:25.864Z,100962.38
2023-01-19T21:39:00.986Z,100957.22
2023-01-19T21:40:33.147Z,100958.03
2023-01-19T21:42:08.051Z,100966.63
2023-01-19T21:43:41.928Z,100970.91
2023-01-19T21:45:14.105Z,100972.59
2023-01-19T21:46:47.204Z,100977.69
2023-01-19T21:48:19.998Z,100974.25
2023-01-19T21:49:51.957Z,100977.69
2023-01-19T21:51:24.025Z,100974.31
2023-01-19T21:52:56.018Z,100978.63
2023-01-19T21:54:27.958Z,100979.44
2023-01-19T21:56:00.618Z,100982.91
2023-01-19T21:57:32.451Z,100975.19
2023-01-19T21:59:06.723Z,100978.56
2023-01-19T22:00:38.696Z,100982.94
2023-01-19T22:02:12.954Z,100977.75
2023-01-19T22:03:45.285Z,100978.56
2023-01-19T22:05:17.731Z,100981.09
2023-01-19T22:06:49.825Z,100981.91
2023-01-19T22:08:24.695Z,100975.88
2023-01-19T22:09:56.601Z,100983.56
2023-01-19T22:11:29.191Z,100986.06
2023-01-19T22:13:01.428Z,100988.69
2023-01-19T22:14:33.404Z,100987.75
2023-01-19T22:16:10.681Z,100993.66
2023-01-19T22:17:42.566Z,100995.38
2023-01-19T22:19:14.602Z,100992.78
2023-01-19T22:20:46.624Z,101000.56
2023-01-19T22:22:18.561Z,101000.56
2023-01-19T22:23:52.212Z,101003.09
2023-01-19T22:25:27.917Z,101009.97
2023-01-19T22:26:59.902Z,101004.00
2023-01-19T22:28:32.055Z,100999.75
2023-01-19T22:30:04.167Z,101005.75
2023-01-19T22:31:36.170Z,101012.66
2023-01-19T22:33:08.182Z,101015.28
2023-01-19T22:34:40.085Z,101017.09
2023-01-19T22:36:16.193Z,101020.59
2023-01-19T22:37:48.181Z,101022.41
2023-01-19T22:39:20.065Z,101022.47
2023-01-19T22:40:52.010Z,101026.91
2023-01-19T22:42:23.923Z,101022.69
2023-01-19T22:43:58.341Z,101024.56
2023-01-19T22:45:30.286Z,101022.03
2023-01-19T22:47:02.257Z,101026.31
2023-01-19T22:48:34.465Z,101022.75
2023-01-19T22:50:09.851Z,101020.13
2023-01-19T22:51:42.206Z,101025.25
2023-01-19T22:53:14.205Z,101027.72
2023-01-19T22:54:46.170Z,101028.53
2023-01-19T22:56:25.645Z,101024.22
2023-01-19T22:57:57.956Z,101035.38
2023-01-19T22:59:30.017Z,101026.78
2023-01-19T23:01:09.413Z,101029.41
2023-01-19T23:02:41.362Z,101040.59
2023-01-19T23:04:15.066Z,101034.50
2023-01-19T23:05:47.013Z,101029.38
2023-01-19T23:07:19.079Z,101033.69
2023-01-19T23:08:51.528Z,101039.66
2023-01-19T23:10:23.534Z,101035.44
2023-01-19T23:11:55.436Z,101039.78
2023-01-19T23:13:27.461Z,101042.34
2023-01-19T23:14:59.357Z,101040.66
2023-01-19T23:16:31.277Z,101039.78
2023-01-19T23:18:03.220Z,101038.13
2023-01-19T23:19:35.270Z,101040.75
2023-01-19T23:21:10.247Z,101034.84
2023-01-19T23:22:42.150Z,101040.91
2023-01-19T23:24:14.021Z,101031.44
2023-01-19T23:25:46.073Z,101030.69
2023-01-19T23:27:17.963Z,101031.56
2023-01-19T23:28:54.764Z,101036.84
2023-01-19T23:30:27.006Z,101037.72
2023-01-19T23:31:58.954Z,101045.50
2023-01-19T23:33:30.810Z,101043.81
2023-01-19T23:35:02.745Z,101044.69
2023-01-19T23:36:36.470Z,101052.47
2023-01-19T23:38:08.305Z,101049.88
2023-01-19T23:39:40.198Z,101051.63
2023-01-19T23:41:12.092Z,101049.94
2023-01-19T23:42:43.994Z,101051.63
2023-01-19T23:44:17.395Z,101051.63
2023-01-19T23:45:49.330Z,101050.88
2023-01-19T23:47:21.202Z,101052.63
2023-01-19T23:48:53.392Z,101058.69
2023-01-19T23:50:25.319Z,101052.63
2023-01-19T23:51:57.210Z,101055.25
2023-01-19T23:53:29.061Z,101055.25
2023-01-19T23:55:00.974Z,101056.13
2023-01-19T23:56:34.670Z,101056.25
2023-01-19T23:58:06.539Z,101056.25
2023-01-19T23:59:38.452Z,101058.88
